createdAt,value
2023-05-24T03:33:41.465Z,98161.84
2023-05-24T03:36:09.581Z,98166.84
2023-05-24T03:38:37.716Z,98163.69
2023-05-24T03:41:05.288Z,98167.53
2023-05-24T03:43:34.020Z,98162.56
2023-05-24T03:46:03.914Z,98157.84
2023-05-24T03:48:31.341Z,98154.72
2023-05-24T03:50:59.303Z,98159.59
2023-05-24T03:53:26.926Z,98170.44
2023-05-24T03:55:55.099Z,98171.47
2023-05-24T03:58:22.612Z,98184.72
2023-05-24T04:00:51.079Z,98190.84
2023-05-24T04:03:19.669Z,98196.09
2023-05-24T04:05:47.354Z,98183.91
2023-05-24T04:08:14.798Z,98182.13
2023-05-24T04:10:42.540Z,98185.38
2023-05-24T04:13:11.669Z,98185.28
2023-05-24T04:15:39.356Z,98174.63
2023-05-24T04:18:06.953Z,98177.03
2023-05-24T04:20:35.179Z,98179.19
2023-05-24T04:23:02.957Z,98180.84
2023-05-24T04:25:33.363Z,98180.97
2023-05-24T04:28:02.067Z,98179.81
2023-05-24T04:30:31.523Z,98206.41
2023-05-24T04:32:59.177Z,98193.16
2023-05-24T04:35:27.715Z,98175.69
2023-05-24T04:37:55.000Z,98175.97
2023-05-24T04:40:22.653Z,98166.97
2023-05-24T04:42:50.650Z,98167.81
2023-05-24T04:45:17.950Z,98165.81
2023-05-24T04:47:45.223Z,98171.63
2023-05-24T04:50:12.505Z,98160.53
2023-05-24T04:52:39.907Z,98159.81
2023-05-24T04:55:07.879Z,98159.81
2023-05-24T04:57:35.195Z,98152.38
2023-05-24T05:00:03.002Z,98154.38
2023-05-24T05:02:31.430Z,98145.91
2023-05-24T05:04:58.858Z,98140.75
2023-05-24T05:07:26.079Z,98137.81
2023-05-24T05:09:53.167Z,98138.72
2023-05-24T05:12:20.258Z,98139.41
2023-05-24T05:14:47.516Z,98142.47
2023-05-24T05:17:14.916Z,98123.59
2023-05-24T05:19:42.666Z,98141.34
2023-05-24T05:22:10.140Z,98135.56
2023-05-24T05:24:37.596Z,98134.22
2023-05-24T05:27:06.065Z,98119.72
2023-05-24T05:29:33.540Z,98124.09
2023-05-24T05:32:01.005Z,98128.63
2023-05-24T05:34:28.235Z,98132.19
2023-05-24T05:36:55.553Z,98135.13
2023-05-24T05:39:22.602Z,98126.13
2023-05-24T05:41:49.929Z,98132.53
2023-05-24T05:44:17.164Z,98137.94
2023-05-24T05:46:45.912Z,98142.28
2023-05-24T05:49:14.904Z,98149.78
2023-05-24T05:51:42.374Z,98144.41
2023-05-24T05:54:14.053Z,98136.66
2023-05-24T05:56:45.474Z,98135.34
2023-05-24T05:59:13.195Z,98136.91
2023-05-24T06:01:41.022Z,98131.22
2023-05-24T06:04:08.402Z,98118.13
2023-05-24T06:06:35.931Z,98107.81
2023-05-24T06:09:03.189Z,98111.50
2023-05-24T06:11:30.442Z,98117.22
2023-05-24T06:13:58.186Z,98118.03
2023-05-24T06:16:25.660Z,98114.25
2023-05-24T06:19:04.812Z,98118.97
2023-05-24T06:21:33.769Z,98105.66
2023-05-24T06:24:02.691Z,98107.88
2023-05-24T06:26:30.143Z,98106.56
2023-05-24T06:28:57.267Z,98098.59
2023-05-24T06:31:24.752Z,98112.16
2023-05-24T06:34:03.709Z,98109.59
2023-05-24T06:36:42.952Z,98114.97
2023-05-24T06:39:11.090Z,98109.16
2023-05-24T06:41:39.238Z,98112.75
2023-05-24T06:44:06.534Z,98113.84
2023-05-24T06:46:34.567Z,98121.16
2023-05-24T06:49:02.163Z,98104.59
2023-05-24T06:51:30.177Z,98116.03
2023-05-24T06:53:57.484Z,98121.41
2023-05-24T06:56:25.166Z,98126.28
2023-05-24T06:58:52.731Z,98116.69
2023-05-24T07:01:19.935Z,98108.41
2023-05-24T07:03:47.692Z,98117.91
2023-05-24T07:06:16.373Z,98123.88
2023-05-24T07:08:43.688Z,98112.75
2023-05-24T07:11:10.793Z,98127.00
2023-05-24T07:13:37.857Z,98126.44
2023-05-24T07:16:06.373Z,98111.94
2023-05-24T07:18:33.897Z,98100.91
2023-05-24T07:21:01.262Z,98119.88
2023-05-24T07:23:28.917Z,98122.41
2023-05-24T07:25:56.235Z,98123.50
2023-05-24T07:28:23.573Z,98124.84
2023-05-24T07:30:51.416Z,98147.66
2023-05-24T07:33:19.151Z,98130.00
2023-05-24T07:35:50.971Z,98127.53
2023-05-24T07:38:19.024Z,98123.25
2023-05-24T07:40:46.545Z,98113.50
2023-05-24T07:43:13.947Z,98115.44
2023-05-24T07:45:41.440Z,98131.00
2023-05-24T07:48:08.835Z,98125.75
2023-05-24T07:50:36.354Z,98124.72
2023-05-24T07:53:06.399Z,98117.88
2023-05-24T07:55:34.108Z,98131.81
2023-05-24T07:58:01.328Z,98140.31
2023-05-24T08:00:29.301Z,98124.13
2023-05-24T08:02:57.142Z,98135.75
2023-05-24T08:05:24.298Z,98106.09
2023-05-24T08:07:53.438Z,98141.91
2023-05-24T08:10:20.804Z,98133.13
2023-05-24T08:12:50.400Z,98129.19
2023-05-24T08:15:17.560Z,98135.34
2023-05-24T08:17:44.734Z,98124.22
2023-05-24T08:20:17.072Z,98126.19
2023-05-24T08:22:44.451Z,98125.78
2023-05-24T08:25:12.133Z,98136.19
2023-05-24T08:27:39.634Z,98142.72
2023-05-24T08:30:08.254Z,98153.63
2023-05-24T08:32:36.010Z,98158.63
2023-05-24T08:35:19.330Z,98139.47
2023-05-24T08:37:48.857Z,98136.94
2023-05-24T08:40:16.638Z,98139.47
2023-05-24T08:42:44.071Z,98142.03
2023-05-24T08:45:12.776Z,98152.56
2023-05-24T08:47:40.830Z,98143.97
2023-05-24T08:50:08.876Z,98165.94
2023-05-24T08:52:36.553Z,98163.16
2023-05-24T08:55:07.189Z,98152.53
2023-05-24T08:57:35.219Z,98160.69
2023-05-24T09:00:02.912Z,98162.53
2023-05-24T09:02:30.259Z,98184.56
2023-05-24T09:04:57.368Z,98176.16
2023-05-24T09:07:25.453Z,98160.06
2023-05-24T09:10:08.933Z,98155.63
2023-05-24T09:12:39.872Z,98150.63
2023-05-24T09:15:08.295Z,98171.31
2023-05-24T09:17:36.913Z,98178.41
2023-05-24T09:20:08.755Z,98169.63
2023-05-24T09:22:40.348Z,98183.69
2023-05-24T09:25:10.103Z,98204.53
2023-05-24T09:27:38.230Z,98202.47
2023-05-24T09:30:10.387Z,98187.56
2023-05-24T09:32:38.217Z,98178.38
2023-05-24T09:35:09.133Z,98194.94
2023-05-24T09:37:36.359Z,98215.66
2023-05-24T09:40:06.757Z,98177.22
2023-05-24T09:42:33.906Z,98171.00
2023-05-24T09:45:07.364Z,98210.94
2023-05-24T09:47:38.913Z,98199.75
2023-05-24T09:50:12.971Z,98204.66
2023-05-24T09:52:41.098Z,98221.03
2023-05-24T09:55:15.996Z,98206.91
2023-05-24T09:57:51.114Z,98215.09
2023-05-24T10:00:23.371Z,98215.63
2023-05-24T10:03:11.652Z,98203.66
2023-05-24T10:05:44.592Z,98209.69
2023-05-24T10:08:12.898Z,98190.03
2023-05-24T10:10:40.783Z,98205.06
2023-05-24T10:13:07.925Z,98205.09
2023-05-24T10:15:35.489Z,98216.88
2023-05-24T10:18:09.144Z,98218.78
2023-05-24T10:20:41.872Z,98216.88
2023-05-24T10:23:09.933Z,98213.09
2023-05-24T10:25:39.367Z,98199.72
2023-05-24T10:28:12.549Z,98219.91
2023-05-24T10:30:49.009Z,98221.53
2023-05-24T10:33:16.694Z,98228.09
2023-05-24T10:35:43.996Z,98227.28
2023-05-24T10:38:11.506Z,98213.66
2023-05-24T10:40:42.495Z,98242.53
2023-05-24T10:43:09.925Z,98242.84
2023-05-24T10:45:38.615Z,98244.47
2023-05-24T10:48:10.091Z,98240.63
2023-05-24T10:50:37.703Z,98233.28
2023-05-24T10:53:18.653Z,98247.19
2023-05-24T10:56:08.457Z,98259.16
2023-05-24T10:58:48.595Z,98248.25
2023-05-24T11:01:33.980Z,98249.59
2023-05-24T11:04:12.703Z,98252.59
2023-05-24T11:06:57.419Z,98265.41
2023-05-24T11:09:26.618Z,98251.25
2023-05-24T11:12:07.816Z,98273.03
2023-05-24T11:14:39.322Z,98273.28
2023-05-24T11:17:07.680Z,98273.03
2023-05-24T11:19:37.193Z,98297.56
2023-05-24T11:22:07.376Z,98285.00
2023-05-24T11:24:35.064Z,98291.81
2023-05-24T11:27:04.473Z,98283.91
2023-05-24T11:29:32.242Z,98299.41
2023-05-24T11:32:10.014Z,98293.97
2023-05-24T11:34:39.713Z,98293.69
2023-05-24T11:37:07.830Z,98315.16
2023-05-24T11:39:37.003Z,98310.25
2023-05-24T11:42:08.246Z,98293.59
2023-05-24T11:44:39.770Z,98305.84
2023-05-24T11:47:07.949Z,98314.00
2023-05-24T11:49:35.393Z,98313.44
2023-05-24T11:52:02.823Z,98312.56
2023-05-24T11:54:32.739Z,98319.09
2023-05-24T11:57:00.182Z,98319.31
2023-05-24T11:59:32.370Z,98327.50
2023-05-24T12:02:06.276Z,98325.84
2023-05-24T12:04:34.504Z,98318.16
2023-05-24T12:07:03.165Z,98336.38
2023-05-24T12:09:30.607Z,98347.78
2023-05-24T12:11:58.716Z,98345.00
2023-05-24T12:14:32.796Z,98318.88
2023-05-24T12:17:03.794Z,98355.25
2023-05-24T12:19:36.116Z,98358.19
2023-05-24T12:22:05.702Z,98357.03
2023-05-24T12:24:33.133Z,98375.25
2023-05-24T12:27:03.039Z,98369.75
2023-05-24T12:29:38.471Z,98367.22
2023-05-24T12:32:11.655Z,98370.41
2023-05-24T12:34:40.597Z,98382.81
2023-05-24T12:37:09.070Z,98375.06
2023-05-24T12:39:37.182Z,98396.00
2023-05-24T12:42:05.091Z,98389.69
2023-05-24T12:44:34.787Z,98389.63
2023-05-24T12:47:03.901Z,98386.81
2023-05-24T12:49:31.736Z,98403.91
2023-05-24T12:51:59.524Z,98406.00
2023-05-24T12:54:27.929Z,98399.38
2023-05-24T12:56:57.000Z,98402.75
2023-05-24T12:59:26.266Z,98410.34
2023-05-24T13:01:54.049Z,98407.56
2023-05-24T13:04:23.248Z,98420.06
2023-05-24T13:06:50.915Z,98415.31
2023-05-24T13:09:21.243Z,98414.38
2023-05-24T13:11:48.975Z,98426.47
2023-05-24T13:14:16.429Z,98425.66
2023-05-24T13:16:44.776Z,98412.78
2023-05-24T13:19:12.167Z,98426.34
2023-05-24T13:21:39.747Z,98416.72
2023-05-24T13:24:07.999Z,98439.19
2023-05-24T13:26:39.106Z,98434.66
2023-05-24T13:29:32.262Z,98434.59
2023-05-24T13:31:56.507Z,98445.00
2023-05-24T13:34:27.005Z,98459.53
2023-05-24T13:36:55.238Z,98465.94
2023-05-24T13:39:22.845Z,98459.25
2023-05-24T13:41:50.513Z,98460.97
2023-05-24T13:44:17.923Z,98467.69
2023-05-24T13:46:45.283Z,98470.56
2023-05-24T13:49:12.800Z,98477.75
2023-05-24T13:51:40.521Z,98478.16
2023-05-24T13:54:08.277Z,98482.78
2023-05-24T13:56:36.183Z,98487.88
2023-05-24T13:59:04.220Z,98498.84
2023-05-24T14:01:31.824Z,98491.81
2023-05-24T14:04:00.844Z,98499.56
2023-05-24T14:06:28.420Z,98502.44
2023-05-24T14:08:56.581Z,98508.19
2023-05-24T14:11:24.766Z,98509.06
2023-05-24T14:14:32.886Z,98522.44
2023-05-24T14:16:40.433Z,98536.59
2023-05-24T14:19:08.124Z,98534.22
2023-05-24T14:21:36.327Z,98525.06
2023-05-24T14:24:04.495Z,98527.31
2023-05-24T14:26:32.183Z,98550.94
2023-05-24T14:28:59.882Z,98564.13
2023-05-24T14:31:27.877Z,98547.38
2023-05-24T14:33:55.521Z,98566.44
2023-05-24T14:36:23.848Z,98566.44
2023-05-24T14:39:12.773Z,98580.63
2023-05-24T14:41:47.632Z,98573.94
2023-05-24T14:44:16.205Z,98579.53
2023-05-24T14:51:02.502Z,98601.47
2023-05-24T14:53:29.992Z,98602.66
2023-05-24T14:55:57.448Z,98608.53
2023-05-24T14:58:26.354Z,98607.69
2023-05-24T15:00:54.961Z,98613.53
2023-05-24T15:03:22.916Z,98617.09
2023-05-24T15:05:51.097Z,98609.34
2023-05-24T15:08:18.896Z,98622.28
2023-05-24T15:10:47.059Z,98622.63
2023-05-24T15:13:19.436Z,98640.59
2023-05-24T15:15:47.826Z,98621.31
2023-05-24T15:18:15.528Z,98632.28
2023-05-24T15:20:43.637Z,98636.38
2023-05-24T15:23:11.504Z,98633.44
2023-05-24T15:25:39.491Z,98640.13
2023-05-24T15:28:13.292Z,98638.06
2023-05-24T15:30:44.529Z,98643.34
2023-05-24T15:33:12.860Z,98632.22
2023-05-24T15:35:41.229Z,98645.94
2023-05-24T15:38:08.679Z,98647.97
2023-05-24T15:40:38.212Z,98650.38
2023-05-24T15:43:06.536Z,98647.31
2023-05-24T15:45:34.575Z,98662.75
2023-05-24T15:48:04.471Z,98663.66
2023-05-24T15:50:57.310Z,98661.47
2023-05-24T15:53:25.371Z,98661.97
2023-05-24T15:55:55.353Z,98657.44
2023-05-24T15:58:22.992Z,98666.41
2023-05-24T16:00:51.130Z,98661.44
2023-05-24T16:03:19.854Z,98661.03
2023-05-24T16:05:50.397Z,98660.13
2023-05-24T16:08:18.090Z,98661.31
2023-05-24T16:10:45.579Z,98662.28
2023-05-24T16:13:12.922Z,98655.84
2023-05-24T16:15:42.225Z,98667.63
2023-05-24T16:18:09.892Z,98665.75
2023-05-24T16:20:37.455Z,98665.16
2023-05-24T16:23:06.200Z,98670.78
2023-05-24T16:25:33.600Z,98660.69
2023-05-24T16:28:01.098Z,98669.25
2023-05-24T16:30:29.174Z,98672.25
2023-05-24T16:32:56.518Z,98668.22
2023-05-24T16:35:24.596Z,98679.50
2023-05-24T16:37:58.011Z,98678.94
2023-05-24T16:40:25.343Z,98688.13
2023-05-24T16:42:54.113Z,98680.88
2023-05-24T16:45:21.824Z,98676.78
2023-05-24T16:47:49.132Z,98690.03
2023-05-24T16:50:17.019Z,98697.91
2023-05-24T16:52:44.764Z,98691.75
2023-05-24T16:55:12.099Z,98703.53
2023-05-24T16:57:39.975Z,98685.06
2023-05-24T17:00:07.857Z,98692.53
2023-05-24T17:02:35.721Z,98702.09
2023-05-24T17:05:03.443Z,98690.31
2023-05-24T17:07:32.122Z,98687.44
2023-05-24T17:10:00.177Z,98696.75
2023-05-24T17:12:29.403Z,98699.84
2023-05-24T17:14:56.789Z,98690.13
2023-05-24T17:17:24.062Z,98699.06
2023-05-24T17:19:51.815Z,98697.38
2023-05-24T17:22:19.522Z,98699.44
2023-05-24T17:24:47.429Z,98688.69
2023-05-24T17:27:15.169Z,98695.50
2023-05-24T17:29:44.340Z,98695.53
2023-05-24T17:32:11.925Z,98693.03
2023-05-24T17:34:39.476Z,98690.75
2023-05-24T17:37:07.381Z,98699.66
2023-05-24T17:39:34.931Z,98700.88
2023-05-24T17:42:02.716Z,98697.19
2023-05-24T17:44:31.071Z,98699.44
2023-05-24T17:47:01.906Z,98703.56
2023-05-24T17:49:29.546Z,98704.16
2023-05-24T17:52:00.543Z,98697.56
2023-05-24T17:54:28.977Z,98699.59
2023-05-24T17:56:56.496Z,98706.22
2023-05-24T17:59:23.775Z,98701.66
2023-05-24T18:01:51.431Z,98700.38
2023-05-24T18:04:19.684Z,98696.03
2023-05-24T18:06:47.327Z,98696.25
2023-05-24T18:09:16.048Z,98693.13
2023-05-24T18:11:43.600Z,98703.44
2023-05-24T18:14:11.373Z,98698.66
2023-05-24T18:16:38.802Z,98709.16
2023-05-24T18:19:06.307Z,98698.00
2023-05-24T18:21:34.025Z,98700.63
2023-05-24T18:24:01.701Z,98700.19
2023-05-24T18:26:28.993Z,98703.91
2023-05-24T18:28:56.717Z,98692.47
2023-05-24T18:31:24.380Z,98693.03
2023-05-24T18:33:51.863Z,98702.94
2023-05-24T18:36:19.143Z,98712.00
2023-05-24T18:38:47.119Z,98711.75
2023-05-24T18:41:15.009Z,98706.34
2023-05-24T18:43:42.647Z,98709.44
2023-05-24T18:46:15.161Z,98708.81
2023-05-24T18:48:43.101Z,98715.38
2023-05-24T18:51:11.250Z,98713.53
2023-05-24T21:33:29.963Z,98698.88
2023-05-24T21:36:16.101Z,98704.88
2023-05-24T21:51:28.246Z,98686.97
2023-05-24T22:00:22.164Z,98700.88
2023-05-24T22:02:50.245Z,98697.97
2023-05-24T22:05:18.386Z,98698.59
2023-05-24T22:07:47.052Z,98690.72
2023-05-24T22:10:25.275Z,98697.47
2023-05-24T22:12:53.668Z,98695.84
2023-05-24T22:15:23.406Z,98690.50
2023-05-24T22:17:56.078Z,98693.50
2023-05-24T22:20:49.849Z,98686.84
2023-05-24T22:23:44.051Z,98701.19
2023-05-24T22:26:13.060Z,98695.91
2023-05-24T22:29:06.698Z,98690.00
2023-05-24T22:31:36.034Z,98691.84
2023-05-24T22:34:04.526Z,98685.69
2023-05-24T22:36:42.084Z,98699.56
2023-05-24T22:39:26.854Z,98700.41
2023-05-24T22:42:07.087Z,98702.53
2023-05-24T22:44:40.760Z,98711.88
2023-05-24T22:47:14.243Z,98703.69
2023-05-24T22:49:44.727Z,98699.19
2023-05-24T22:52:13.407Z,98698.78
2023-05-24T22:54:48.086Z,98698.19
2023-05-24T22:57:22.552Z,98694.28
2023-05-24T22:59:50.082Z,98697.16
2023-05-24T23:02:17.529Z,98699.00
2023-05-24T23:04:46.134Z,98690.66
2023-05-24T23:07:17.506Z,98700.75
2023-05-24T23:09:45.257Z,98690.13
2023-05-24T23:12:13.812Z,98689.44
2023-05-24T23:14:41.963Z,98688.13
2023-05-24T23:17:15.729Z,98689.69
2023-05-24T23:19:43.137Z,98692.69
2023-05-24T23:22:18.066Z,98694.00
2023-05-24T23:24:47.026Z,98699.34
2023-05-24T23:27:14.788Z,98695.75
2023-05-24T23:29:42.846Z,98695.22
2023-05-24T23:32:10.766Z,98694.59
2023-05-24T23:34:39.385Z,98688.66
2023-05-24T23:37:07.233Z,98694.78
2023-05-24T23:39:34.597Z,98699.59
2023-05-24T23:42:02.613Z,98690.63
2023-05-24T23:44:30.839Z,98686.97
2023-05-24T23:46:58.575Z,98682.41
2023-05-24T23:49:26.283Z,98681.94
2023-05-24T23:51:53.943Z,98686.44
2023-05-24T23:54:23.432Z,98674.91
2023-05-24T23:56:51.045Z,98676.28
2023-05-24T23:59:18.929Z,98677.66
